createdAt,value
2022-08-11T00:02:29.372Z,1.80
2022-08-11T00:04:58.850Z,1.70
2022-08-11T00:07:28.225Z,1.73
2022-08-11T00:09:57.410Z,2.00
2022-08-11T00:12:25.823Z,2.40
2022-08-11T00:14:59.882Z,1.80
2022-08-11T00:17:31.962Z,1.80
2022-08-11T00:20:12.165Z,1.95
2022-08-11T00:22:44.183Z,1.83
2022-08-11T00:25:14.175Z,1.90
2022-08-11T00:27:43.074Z,1.85
2022-08-11T00:30:13.563Z,1.70
2022-08-11T00:32:45.190Z,1.83
2022-08-11T00:35:53.847Z,2.10
2022-08-11T00:38:08.577Z,2.05
2022-08-11T00:40:40.718Z,2.10
2022-08-11T00:43:20.252Z,1.90
2022-08-11T00:46:12.538Z,1.80
2022-08-11T00:48:53.350Z,1.98
2022-08-11T00:51:59.668Z,2.05
2022-08-11T00:54:56.345Z,2.08
2022-08-11T00:57:45.190Z,2.08
2022-08-11T01:00:16.414Z,1.80
2022-08-11T01:03:09.080Z,2.05
2022-08-11T01:06:18.679Z,2.10
2022-08-11T01:09:17.797Z,2.70
2022-08-11T01:12:22.351Z,2.10
2022-08-11T01:15:57.089Z,1.90
2022-08-11T01:19:22.335Z,1.83
2022-08-11T01:22:25.982Z,1.80
2022-08-11T01:25:31.013Z,1.95
2022-08-11T01:28:59.205Z,2.20
2022-08-11T01:31:51.515Z,1.90
2022-08-11T01:35:11.456Z,2.00
2022-08-11T01:38:24.987Z,1.95
2022-08-11T01:41:51.353Z,1.90
2022-08-11T01:44:58.687Z,2.25
2022-08-11T01:47:54.537Z,2.20
2022-08-11T01:50:32.236Z,2.38
2022-08-11T01:53:16.463Z,2.10
2022-08-11T01:55:57.462Z,2.50
2022-08-11T01:58:43.641Z,2.15
2022-08-11T02:01:29.380Z,2.20
2022-08-11T02:04:09.183Z,2.35
2022-08-11T02:06:58.383Z,2.13
2022-08-11T02:09:42.150Z,2.30
2022-08-11T02:12:31.362Z,2.13
2022-08-11T02:15:14.645Z,2.30
2022-08-11T02:18:00.712Z,2.30
2022-08-11T02:20:53.856Z,2.33
2022-08-11T02:24:05.912Z,2.10
2022-08-11T02:26:37.108Z,2.10
2022-08-11T02:29:16.958Z,2.17
2022-08-11T02:32:24.344Z,2.50
2022-08-11T02:35:02.687Z,2.42
2022-08-11T02:37:46.200Z,2.30
2022-08-11T02:40:25.980Z,2.22
2022-08-11T02:43:15.161Z,2.28
2022-08-11T02:46:04.809Z,2.30
2022-08-11T02:49:05.369Z,2.22
2022-08-11T02:51:56.885Z,2.20
2022-08-11T02:54:30.737Z,2.22
2022-08-11T02:57:05.208Z,2.10
2022-08-11T02:59:51.535Z,2.40
2022-08-11T03:02:33.253Z,2.33
2022-08-11T03:05:09.189Z,2.70
2022-08-11T03:07:49.430Z,2.58
2022-08-11T03:10:23.461Z,2.72
2022-08-11T03:13:15.943Z,2.40
2022-08-11T03:16:04.514Z,3.00
2022-08-11T03:18:39.468Z,2.80
2022-08-11T03:21:15.788Z,3.15
2022-08-11T03:23:54.864Z,2.85
2022-08-11T03:26:27.933Z,2.60
2022-08-11T03:29:06.112Z,2.67
2022-08-11T03:31:42.697Z,2.92
2022-08-11T03:34:19.361Z,2.67
2022-08-11T03:37:37.095Z,2.80
2022-08-11T03:40:14.323Z,2.40
2022-08-11T03:42:47.630Z,2.70
2022-08-11T03:45:27.285Z,2.47
2022-08-11T03:48:09.041Z,2.67
2022-08-11T03:50:58.160Z,2.88
2022-08-11T03:53:57.024Z,3.10
2022-08-11T03:57:00.544Z,2.97
2022-08-11T04:00:10.177Z,3.38
2022-08-11T04:03:12.715Z,2.80
2022-08-11T04:06:14.329Z,2.67
2022-08-11T04:09:18.689Z,3.33
2022-08-11T04:12:14.692Z,2.78
2022-08-11T04:15:58.789Z,2.30
2022-08-11T04:19:17.532Z,2.38
2022-08-11T04:22:12.190Z,2.15
2022-08-11T04:25:07.051Z,2.40
2022-08-11T04:28:29.048Z,2.08
2022-08-11T04:31:08.283Z,2.20
2022-08-11T04:34:08.148Z,2.38
2022-08-11T04:37:00.294Z,2.15
2022-08-11T04:39:44.644Z,1.90
2022-08-11T04:43:12.975Z,2.00
2022-08-11T04:46:02.809Z,1.90
2022-08-11T04:49:24.253Z,1.92
2022-08-11T04:52:49.624Z,2.08
2022-08-11T04:55:54.723Z,2.00
2022-08-11T04:58:48.292Z,1.90
2022-08-11T05:01:44.199Z,2.67
2022-08-11T05:04:43.375Z,1.90
2022-08-11T05:07:34.531Z,2.22
2022-08-11T05:10:19.939Z,2.30
2022-08-11T05:12:52.568Z,1.80
2022-08-11T05:15:51.562Z,2.60
2022-08-11T05:18:42.745Z,2.00
2022-08-11T05:21:30.801Z,2.15
2022-08-11T05:24:38.807Z,1.92
2022-08-11T05:27:27.430Z,2.05
2022-08-11T05:30:20.731Z,2.20
2022-08-11T05:33:16.526Z,1.75
2022-08-11T05:36:02.382Z,2.00
2022-08-11T05:38:53.195Z,2.22
2022-08-11T05:41:40.525Z,2.00
2022-08-11T05:44:26.437Z,1.88
2022-08-11T05:47:14.126Z,2.20
2022-08-11T05:50:00.029Z,1.77
2022-08-11T05:52:56.531Z,1.98
2022-08-11T05:56:01.755Z,1.90
2022-08-11T05:58:41.733Z,2.10
2022-08-11T06:01:10.840Z,2.05
2022-08-11T06:03:58.973Z,2.42
2022-08-11T06:06:29.370Z,2.10
2022-08-11T06:09:00.705Z,1.85
2022-08-11T06:11:42.964Z,1.90
2022-08-11T06:14:12.394Z,2.40
2022-08-11T06:16:43.676Z,2.33
2022-08-11T06:19:14.327Z,2.17
2022-08-11T06:21:46.713Z,2.05
2022-08-11T06:24:15.861Z,2.13
2022-08-11T06:27:11.244Z,2.25
2022-08-11T06:29:47.935Z,2.25
2022-08-11T06:32:26.603Z,2.42
2022-08-11T06:35:20.501Z,2.30
2022-08-11T06:38:03.596Z,2.35
2022-08-11T06:40:38.197Z,2.25
2022-08-11T06:43:17.785Z,2.00
2022-08-11T06:45:54.392Z,2.50
2022-08-11T06:48:24.354Z,2.60
2022-08-11T06:51:12.463Z,2.17
2022-08-11T06:53:57.551Z,2.08
2022-08-11T06:57:12.100Z,2.10
2022-08-11T07:00:00.035Z,2.30
2022-08-11T07:02:35.021Z,2.30
2022-08-11T07:05:08.226Z,2.90
2022-08-11T07:08:33.514Z,2.40
2022-08-11T07:11:39.401Z,2.20
2022-08-11T07:14:26.158Z,2.13
2022-08-11T07:16:55.419Z,2.30
2022-08-11T07:19:44.502Z,2.17
2022-08-11T07:22:31.750Z,2.40
2022-08-11T07:25:21.913Z,2.45
2022-08-11T07:28:15.478Z,2.10
2022-08-11T07:30:44.874Z,2.45
2022-08-11T07:34:05.634Z,2.83
2022-08-11T07:36:06.592Z,2.20
2022-08-11T07:38:47.307Z,2.30
2022-08-11T07:41:18.673Z,2.55
2022-08-11T07:43:49.752Z,2.30
2022-08-11T07:46:36.359Z,2.38
2022-08-11T07:49:23.341Z,2.50
2022-08-11T07:52:09.469Z,2.53
2022-08-11T07:54:39.183Z,2.40
2022-08-11T07:57:58.519Z,2.30
2022-08-11T08:00:35.844Z,2.60
2022-08-11T08:03:23.532Z,2.78
2022-08-11T08:06:28.523Z,2.55
2022-08-11T08:09:16.369Z,2.47
2022-08-11T08:12:03.713Z,2.85
2022-08-11T08:14:51.491Z,2.30
2022-08-11T08:17:37.664Z,3.00
2022-08-11T08:20:07.864Z,2.75
2022-08-11T08:22:37.789Z,2.88
2022-08-11T08:25:18.093Z,3.30
2022-08-11T08:27:46.987Z,3.60
2022-08-11T08:30:33.957Z,3.08
2022-08-11T08:33:02.093Z,3.22
2022-08-11T08:35:33.043Z,3.28
2022-08-11T08:38:01.974Z,3.20
2022-08-11T08:40:30.079Z,3.38
2022-08-11T08:43:03.880Z,3.10
2022-08-11T08:45:37.155Z,3.72
2022-08-11T08:48:12.756Z,2.67
2022-08-11T08:51:21.906Z,2.67
2022-08-11T08:53:56.510Z,2.63
2022-08-11T08:56:29.403Z,2.30
2022-08-11T08:59:01.162Z,2.33
2022-08-11T09:01:34.680Z,2.50
2022-08-11T09:04:11.109Z,2.25
2022-08-11T09:15:08.101Z,2.00
2022-08-11T09:17:41.672Z,2.28
2022-08-11T09:20:13.670Z,2.03
2022-08-11T09:26:09.440Z,2.40
2022-08-11T09:28:38.046Z,2.47
2022-08-11T09:31:08.122Z,2.65
2022-08-11T09:33:38.111Z,2.10
2022-08-11T09:36:27.952Z,2.10
2022-08-11T09:39:15.051Z,2.40
2022-08-11T09:42:00.519Z,2.20
2022-08-11T09:44:49.132Z,2.10
2022-08-11T09:47:26.179Z,2.13
2022-08-11T09:50:01.452Z,2.28
2022-08-11T09:52:32.879Z,2.25
2022-08-11T09:55:02.539Z,1.75
2022-08-11T09:57:48.199Z,2.00
2022-08-11T10:00:17.442Z,2.25
2022-08-11T10:02:48.525Z,2.10
2022-08-11T10:05:38.173Z,2.05
2022-08-11T10:08:08.614Z,2.10
2022-08-11T10:10:39.285Z,2.00
2022-08-11T10:14:30.920Z,2.17
2022-08-11T10:16:15.551Z,2.00
2022-08-11T10:18:53.055Z,2.05
2022-08-11T10:21:38.602Z,2.10
2022-08-11T10:24:25.818Z,2.05
2022-08-11T10:27:00.358Z,2.00
2022-08-11T10:29:52.174Z,2.30
2022-08-11T10:32:57.668Z,2.15
2022-08-11T10:35:29.644Z,2.30
2022-08-11T10:38:08.084Z,2.40
2022-08-11T10:40:40.985Z,2.72
2022-08-11T10:43:14.039Z,2.20
2022-08-11T10:46:05.530Z,1.98
2022-08-11T10:48:38.691Z,2.35
2022-08-11T10:51:42.791Z,2.58
2022-08-11T10:54:25.384Z,2.30
2022-08-11T10:57:12.918Z,2.17
2022-08-11T10:59:42.877Z,2.00
2022-08-11T11:02:15.408Z,1.98
2022-08-11T11:04:58.319Z,2.00
2022-08-11T11:07:42.851Z,2.20
2022-08-11T11:10:14.428Z,1.90
2022-08-11T11:13:04.296Z,2.20
2022-08-11T11:15:53.497Z,2.20
2022-08-11T11:18:24.147Z,1.90
2022-08-11T11:20:57.848Z,2.45
2022-08-11T11:23:29.696Z,2.20
2022-08-11T11:26:29.183Z,2.10
2022-08-11T11:29:12.082Z,2.20
2022-08-11T11:31:52.381Z,2.03
2022-08-11T11:34:53.250Z,1.90
2022-08-11T11:37:23.807Z,2.10
2022-08-11T11:39:52.470Z,2.10
2022-08-11T11:42:22.920Z,1.90
2022-08-11T11:44:55.584Z,2.30
2022-08-11T11:47:25.006Z,2.08
2022-08-11T11:49:54.476Z,1.90
2022-08-11T11:52:23.478Z,1.77
2022-08-11T11:54:54.079Z,1.80
2022-08-11T11:57:41.889Z,2.08
2022-08-11T12:00:44.818Z,2.08
2022-08-11T12:03:13.816Z,1.65
2022-08-11T12:05:44.956Z,1.90
2022-08-11T12:08:17.069Z,1.80
2022-08-11T12:10:48.660Z,2.30
2022-08-11T12:13:36.684Z,2.25
2022-08-11T12:16:34.294Z,2.15
2022-08-11T12:18:56.920Z,3.10
2022-08-11T12:21:26.104Z,2.03
2022-08-11T12:24:13.502Z,2.50
2022-08-11T12:27:15.750Z,2.00
2022-08-11T12:29:55.122Z,2.13
2022-08-11T12:32:25.476Z,2.30
2022-08-11T12:34:54.113Z,1.95
2022-08-11T12:37:27.224Z,2.20
2022-08-11T12:40:42.536Z,2.33
2022-08-11T12:43:37.938Z,2.20
2022-08-11T12:46:10.295Z,1.98
2022-08-11T12:49:02.766Z,2.00
2022-08-11T12:52:13.023Z,1.90
2022-08-11T12:54:51.548Z,2.53
2022-08-11T12:57:47.439Z,2.30
2022-08-11T13:00:34.116Z,2.58
2022-08-11T13:03:22.373Z,2.95
2022-08-11T13:05:54.778Z,2.30
2022-08-11T13:08:25.045Z,2.10
2022-08-11T13:11:12.427Z,2.10
2022-08-11T13:13:55.554Z,2.45
2022-08-11T13:16:29.183Z,2.22
2022-08-11T13:19:01.033Z,2.40
2022-08-11T13:21:29.997Z,2.30
2022-08-11T13:24:01.818Z,2.03
2022-08-11T13:26:47.353Z,1.85
2022-08-11T13:29:22.586Z,2.28
2022-08-11T13:31:52.160Z,2.90
2022-08-11T13:34:23.975Z,2.47
2022-08-11T13:36:53.628Z,2.35
2022-08-11T13:39:23.899Z,2.17
2022-08-11T13:41:55.224Z,2.17
2022-08-11T13:44:27.217Z,2.10
2022-08-11T13:46:58.656Z,2.78
2022-08-11T13:49:29.219Z,2.20
2022-08-11T13:51:57.751Z,1.90
2022-08-11T13:54:28.608Z,1.95
2022-08-11T13:57:01.071Z,2.13
2022-08-11T13:59:31.271Z,2.08
2022-08-11T14:02:21.416Z,2.53
2022-08-11T14:04:56.545Z,2.08
2022-08-11T14:07:34.784Z,1.98
2022-08-11T14:10:04.161Z,2.20
2022-08-11T14:12:53.292Z,2.25
2022-08-11T14:15:25.341Z,2.28
2022-08-11T14:18:01.208Z,2.30
2022-08-11T14:20:52.997Z,2.10
2022-08-11T14:23:26.769Z,2.30
2022-08-11T14:26:13.064Z,2.20
2022-08-11T14:28:45.136Z,2.13
2022-08-11T14:31:15.634Z,2.70
2022-08-11T14:33:58.663Z,2.20
2022-08-11T14:36:31.828Z,2.40
2022-08-11T14:39:01.913Z,2.40
2022-08-11T14:42:10.245Z,2.35
2022-08-11T14:44:54.921Z,2.25
2022-08-11T14:47:25.621Z,2.30
2022-08-11T14:50:02.562Z,2.40
2022-08-11T14:52:44.729Z,2.45
2022-08-11T14:55:31.436Z,2.40
2022-08-11T14:58:00.745Z,2.25
2022-08-11T15:00:29.721Z,2.28
2022-08-11T15:03:13.426Z,2.33
2022-08-11T15:05:56.582Z,2.40
2022-08-11T15:08:49.573Z,2.03
2022-08-11T15:11:36.772Z,2.38
2022-08-11T15:14:07.837Z,2.30
2022-08-11T15:16:54.983Z,1.95
2022-08-11T15:19:40.569Z,2.03
2022-08-11T15:22:28.417Z,2.05
2022-08-11T15:24:59.449Z,2.15
2022-08-11T15:27:48.577Z,2.30
2022-08-11T15:30:35.726Z,1.92
2022-08-11T15:33:36.808Z,2.13
2022-08-11T15:36:26.218Z,2.20
2022-08-11T15:39:00.018Z,2.65
2022-08-11T15:41:58.839Z,2.35
2022-08-11T15:45:02.225Z,2.33
2022-08-11T15:47:41.577Z,2.10
2022-08-11T15:50:14.685Z,1.95
2022-08-11T15:52:51.082Z,2.47
2022-08-11T15:55:20.708Z,2.30
2022-08-11T15:58:10.245Z,2.53
2022-08-11T16:01:03.743Z,2.25
2022-08-11T16:04:07.160Z,2.20
2022-08-11T16:06:42.803Z,2.75
2022-08-11T16:09:21.253Z,2.63
2022-08-11T16:11:50.646Z,2.85
2022-08-11T16:14:38.792Z,2.40
2022-08-11T16:17:11.297Z,2.13
2022-08-11T16:19:42.275Z,2.22
2022-08-11T16:22:13.186Z,2.20
2022-08-11T16:27:09.538Z,2.60
2022-08-11T16:27:37.528Z,2.27
2022-08-11T16:30:08.958Z,2.70
2022-08-11T16:32:39.662Z,2.60
2022-08-11T16:35:28.799Z,2.85
2022-08-11T16:38:15.925Z,3.00
2022-08-11T16:40:45.932Z,2.90
2022-08-11T16:43:35.629Z,2.63
2022-08-11T16:46:32.538Z,2.60
2022-08-11T16:49:03.162Z,2.58
2022-08-11T16:51:32.763Z,2.80
2022-08-11T16:54:05.952Z,2.70
2022-08-11T16:56:38.757Z,2.95
2022-08-11T16:59:17.095Z,2.53
2022-08-11T17:01:53.469Z,2.60
2022-08-11T17:04:48.950Z,2.80
2022-08-11T17:07:41.623Z,2.08
2022-08-11T17:10:53.460Z,2.45
2022-08-11T17:13:27.246Z,2.50
2022-08-11T17:16:08.263Z,2.58
2022-08-11T17:18:44.757Z,2.35
2022-08-11T17:21:19.770Z,2.58
2022-08-11T17:23:52.717Z,2.83
2022-08-11T17:26:24.290Z,2.30
2022-08-11T17:28:57.934Z,2.42
2022-08-11T17:31:46.183Z,2.33
2022-08-11T17:34:33.771Z,2.20
2022-08-11T17:37:02.503Z,2.28
2022-08-11T17:39:32.969Z,2.22
2022-08-11T17:42:20.231Z,2.20
2022-08-11T17:45:07.203Z,2.10
2022-08-11T17:47:53.237Z,2.25
2022-08-11T17:50:23.468Z,2.20
2022-08-11T17:53:09.590Z,2.10
2022-08-11T17:55:57.667Z,2.30
2022-08-11T17:58:45.145Z,2.08
2022-08-11T18:01:14.166Z,2.08
2022-08-11T18:03:57.420Z,2.17
2022-08-11T18:06:34.868Z,2.25
2022-08-11T18:09:23.282Z,2.00
2022-08-11T18:12:12.792Z,2.25
2022-08-11T18:15:00.516Z,2.25
2022-08-11T18:17:46.107Z,2.38
2022-08-11T18:20:31.635Z,2.35
2022-08-11T18:23:21.618Z,2.30
2022-08-11T18:26:29.767Z,2.40
2022-08-11T18:29:17.714Z,2.55
2022-08-11T18:32:08.220Z,2.25
2022-08-11T18:34:59.397Z,2.40
2022-08-11T18:37:49.519Z,2.03
2022-08-11T18:40:42.831Z,2.25
2022-08-11T18:43:30.772Z,2.30
2022-08-11T18:46:20.350Z,2.20
2022-08-11T18:49:15.354Z,2.10
2022-08-11T18:52:05.699Z,2.13
2022-08-11T18:54:53.664Z,2.33
2022-08-11T18:57:53.776Z,2.20
2022-08-11T19:00:41.628Z,1.95
2022-08-11T19:03:29.541Z,2.22
2022-08-11T19:06:39.436Z,2.28
2022-08-11T19:09:27.093Z,1.95
2022-08-11T19:12:14.582Z,2.42
2022-08-11T19:15:03.349Z,2.30
2022-08-11T19:17:51.020Z,2.30
2022-08-11T19:20:38.963Z,2.10
2022-08-11T19:23:27.350Z,2.30
2022-08-11T19:26:13.057Z,2.30
2022-08-11T19:29:01.124Z,2.17
2022-08-11T19:31:49.174Z,2.13
2022-08-11T19:34:38.659Z,2.10
2022-08-11T19:37:26.693Z,2.30
2022-08-11T19:40:16.118Z,1.92
2022-08-11T19:43:02.612Z,2.05
2022-08-11T19:45:52.679Z,2.00
2022-08-11T19:48:41.476Z,2.30
2022-08-11T19:51:27.991Z,2.15
2022-08-11T19:54:14.383Z,2.22
2022-08-11T19:57:10.443Z,2.03
2022-08-11T19:59:57.254Z,2.58
2022-08-11T20:02:42.775Z,2.00
2022-08-11T20:05:29.916Z,2.40
2022-08-11T20:08:16.871Z,2.30
2022-08-11T20:11:06.400Z,2.58
2022-08-11T20:13:53.891Z,2.30
2022-08-11T20:16:41.243Z,2.30
2022-08-11T20:19:55.465Z,2.50
2022-08-11T20:22:35.918Z,2.83
2022-08-11T20:25:24.014Z,3.05
2022-08-11T20:28:12.124Z,3.55
2022-08-11T20:30:59.568Z,3.05
2022-08-11T20:33:45.097Z,3.05
2022-08-11T20:36:32.920Z,3.22
2022-08-11T20:39:21.079Z,2.90
2022-08-11T20:42:08.557Z,3.47
2022-08-11T20:44:58.009Z,3.35
2022-08-11T20:47:58.943Z,3.47
2022-08-11T20:50:46.756Z,3.78
2022-08-11T20:53:35.971Z,3.65
2022-08-11T20:56:28.617Z,3.63
2022-08-11T20:59:17.874Z,3.45
2022-08-11T21:02:09.363Z,3.17
2022-08-11T21:04:57.163Z,3.40
2022-08-11T21:10:53.591Z,2.95
2022-08-11T21:13:46.101Z,3.22
2022-08-11T21:16:35.518Z,3.85
2022-08-11T21:20:00.490Z,3.35
2022-08-11T21:22:37.262Z,3.60
2022-08-11T21:25:25.605Z,3.63
2022-08-11T21:28:15.086Z,3.50
2022-08-11T21:31:02.495Z,3.55
2022-08-11T21:33:50.142Z,3.42
2022-08-11T21:36:37.695Z,3.55
2022-08-11T21:39:25.739Z,3.25
2022-08-11T21:42:12.261Z,3.08
2022-08-11T21:45:00.282Z,2.97
2022-08-11T21:47:48.250Z,3.13
2022-08-11T21:50:34.255Z,2.40
2022-08-11T21:53:19.837Z,3.00
2022-08-11T21:56:06.709Z,3.10
2022-08-11T21:58:53.263Z,2.58
2022-08-11T22:01:40.951Z,2.85
2022-08-11T22:04:28.466Z,2.58
2022-08-11T22:07:14.927Z,2.50
2022-08-11T22:10:00.580Z,2.47
2022-08-11T22:13:06.455Z,2.47
2022-08-11T22:15:51.854Z,2.25
2022-08-11T22:18:37.297Z,2.60
2022-08-11T22:22:01.486Z,2.50
2022-08-11T22:24:30.826Z,2.60
2022-08-11T22:27:16.308Z,2.30
2022-08-11T22:30:01.828Z,2.20
2022-08-11T22:32:48.165Z,2.25
2022-08-11T22:35:35.296Z,2.40
2022-08-11T22:38:22.869Z,2.70
2022-08-11T22:41:08.266Z,2.25
2022-08-11T22:43:53.713Z,2.45
2022-08-11T22:46:40.725Z,2.30
2022-08-11T22:49:27.142Z,2.25
2022-08-11T22:52:13.707Z,2.55
2022-08-11T22:55:05.692Z,2.38
2022-08-11T22:58:01.118Z,2.58
2022-08-11T23:00:47.831Z,2.33
2022-08-11T23:03:38.125Z,2.50
2022-08-11T23:06:24.240Z,2.20
2022-08-11T23:09:09.644Z,2.22
2022-08-11T23:12:08.004Z,2.22
2022-08-11T23:14:57.871Z,2.42
2022-08-11T23:17:45.017Z,2.50
2022-08-11T23:20:34.492Z,2.30
2022-08-11T23:23:30.797Z,2.65
2022-08-11T23:26:17.343Z,2.70
2022-08-11T23:29:05.973Z,2.30
2022-08-11T23:31:53.574Z,2.47
2022-08-11T23:35:03.670Z,2.60
2022-08-11T23:37:47.501Z,2.72
2022-08-11T23:40:32.905Z,2.53
2022-08-11T23:43:19.912Z,2.67
2022-08-11T23:46:07.125Z,2.50
2022-08-11T23:48:54.096Z,2.40
2022-08-11T23:51:41.461Z,2.90
2022-08-11T23:54:28.147Z,2.70
2022-08-11T23:57:14.300Z,2.60
2022-08-11T23:59:59.713Z,2.40
